Time;durP1;ratioP1;P1;durP2;ratioP2;P2;SDS_P1;SDS_P2;PMS_P1;PMS_P2;Temp;Humidity;BMP_temperature;BMP_pressure;BME280_temperature;BME280_humidity;BME280_pressure;Samples;Min_cycle;Max_cycle;Signal;HPM_P1;HPM_P2
2022/02/06 00:00:44;;;;;;;9.00;2.57;;;7.70;99.90;;;;;;5076173;28;20255;-83
2022/02/06 00:03:11;;;;;;;11.90;2.40;;;7.70;99.90;;;;;;5075705;28;20202;-80
2022/02/06 00:05:38;;;;;;;10.20;2.60;;;7.70;99.90;;;;;;5075299;28;20591;-83
2022/02/06 00:08:10;;;;;;;9.53;2.23;;;7.70;99.90;;;;;;5075157;28;20213;-78
2022/02/06 00:10:40;;;;;;;7.33;2.20;;;7.70;99.90;;;;;;5075813;28;20301;-78
2022/02/06 00:13:08;;;;;;;11.23;2.90;;;7.70;99.90;;;;;;5075198;28;20194;-78
2022/02/06 00:15:35;;;;;;;9.37;3.00;;;7.70;99.90;;;;;;5073957;28;20217;-84
2022/02/06 00:18:03;;;;;;;6.97;2.30;;;7.70;99.90;;;;;;5074568;28;20194;-80
2022/02/06 00:20:34;;;;;;;7.77;2.13;;;7.80;99.90;;;;;;5074927;28;20206;-81
2022/02/06 00:23:05;;;;;;;11.13;2.87;;;7.80;99.90;;;;;;5074707;28;20229;-79
2022/02/06 00:25:38;;;;;;;18.60;2.70;;;7.90;99.90;;;;;;5076007;28;20590;-80
2022/02/06 00:28:18;;;;;;;9.77;2.47;;;7.80;99.90;;;;;;5074714;28;20220;-80
2022/02/06 00:30:53;;;;;;;6.37;2.10;;;7.80;99.90;;;;;;5075345;28;20276;-80
2022/02/06 00:33:34;;;;;;;10.73;2.30;;;7.80;99.90;;;;;;5074716;28;20288;-80
2022/02/06 00:38:03;;;;;;;7.83;2.30;;;7.90;99.90;;;;;;5077535;28;20255;-84
2022/02/06 00:39:04;;;;;;;5.07;1.93;;;7.80;99.90;;;;;;5073633;28;20730;-78
2022/02/06 00:41:32;;;;;;;9.37;2.87;;;7.90;99.90;;;;;;5075478;28;20237;-79
2022/02/06 00:44:04;;;;;;;7.70;2.23;;;7.90;99.90;;;;;;5074520;28;20207;-76
2022/02/06 00:46:33;;;;;;;7.87;2.73;;;7.90;99.90;;;;;;5074401;28;20201;-78
2022/02/06 00:49:10;;;;;;;9.00;2.37;;;7.90;99.90;;;;;;5076000;28;20205;-79
2022/02/06 00:51:43;;;;;;;10.60;2.10;;;7.90;99.90;;;;;;5075841;28;20209;-77
2022/02/06 00:54:10;;;;;;;6.93;2.23;;;7.90;99.90;;;;;;5075969;28;20200;-79
2022/02/06 00:56:39;;;;;;;10.20;2.00;;;7.90;99.90;;;;;;5075957;28;20232;-81
2022/02/06 00:59:07;;;;;;;5.47;1.90;;;8.00;99.90;;;;;;5076022;28;20225;-85
2022/02/06 01:01:36;;;;;;;6.43;2.10;;;8.00;99.90;;;;;;5074661;28;20883;-77
2022/02/06 01:04:03;;;;;;;6.33;2.23;;;8.00;99.90;;;;;;5074644;28;20217;-77
2022/02/06 01:06:30;;;;;;;9.33;2.63;;;8.00;99.90;;;;;;5073657;28;20190;-77
2022/02/06 01:08:57;;;;;;;9.57;2.33;;;8.00;99.90;;;;;;5073099;28;20253;-79
2022/02/06 01:11:24;;;;;;;6.50;2.10;;;8.10;99.90;;;;;;5073558;28;20220;-77
2022/02/06 01:14:02;;;;;;;11.10;2.43;;;8.10;99.90;;;;;;5072624;28;20570;-78
2022/02/06 01:16:34;;;;;;;6.93;1.93;;;8.20;99.90;;;;;;5074223;28;20240;-77
2022/02/06 01:19:05;;;;;;;7.67;2.37;;;8.20;99.90;;;;;;5074279;28;20202;-77
2022/02/06 01:21:47;;;;;;;5.33;1.77;;;8.20;99.90;;;;;;5072932;28;20209;-80
2022/02/06 01:24:18;;;;;;;6.40;1.70;;;8.20;99.90;;;;;;5072824;28;20197;-81
2022/02/06 01:26:49;;;;;;;7.33;1.97;;;8.20;99.90;;;;;;5075975;28;20215;-80
2022/02/06 01:29:27;;;;;;;8.87;2.53;;;8.20;99.90;;;;;;5076852;28;20212;-79
2022/02/06 01:32:00;;;;;;;8.10;2.07;;;8.20;99.90;;;;;;5077517;28;20213;-76
2022/02/06 01:34:35;;;;;;;8.83;1.73;;;8.20;99.90;;;;;;5077245;28;20202;-81
2022/02/06 01:37:12;;;;;;;11.05;2.95;;;8.20;99.90;;;;;;5076854;28;20528;-78
2022/02/06 01:40:00;;;;;;;6.37;2.33;;;8.10;99.90;;;;;;5077859;28;20208;-81
2022/02/06 01:42:36;;;;;;;7.60;1.73;;;8.00;99.90;;;;;;5077965;28;20653;-79
2022/02/06 01:45:32;;;;;;;4.20;2.03;;;8.00;99.90;;;;;;5079500;28;20194;-79
2022/02/06 02:02:40;;;;;;;7.73;1.90;;;7.70;99.90;;;;;;5077081;28;20626;-82
2022/02/06 02:05:46;;;;;;;7.00;2.13;;;7.60;99.90;;;;;;5079917;28;20277;-76
2022/02/06 02:08:40;;;;;;;7.83;2.07;;;7.50;99.90;;;;;;5079217;28;20293;-79
2022/02/06 02:11:36;;;;;;;6.87;2.10;;;7.50;99.90;;;;;;5076531;28;20213;-78
2022/02/06 02:17:23;;;;;;;8.67;2.63;;;7.40;99.90;;;;;;5066202;28;20308;-79
2022/02/06 02:20:14;;;;;;;7.80;2.33;;;7.40;99.90;;;;;;5076259;28;20224;-77
2022/02/06 02:26:07;;;;;;;10.27;2.13;;;7.30;99.90;;;;;;5076826;28;20209;-76
2022/02/06 02:45:18;;;;;;;6.97;2.47;;;7.70;99.90;;;;;;5076471;28;20710;-78
2022/02/06 02:47:48;;;;;;;6.77;2.20;;;7.70;99.90;;;;;;5076460;28;20201;-79
2022/02/06 02:50:16;;;;;;;4.97;2.00;;;7.70;99.90;;;;;;5076880;28;20202;-78
2022/02/06 02:55:44;;;;;;;7.00;2.20;;;7.80;99.90;;;;;;5076502;28;20366;-78
2022/02/06 02:58:25;;;;;;;7.60;2.20;;;7.80;99.90;;;;;;5075966;28;20256;-78
2022/02/06 03:01:04;;;;;;;11.10;2.77;;;7.70;99.90;;;;;;5077412;28;20217;-79
2022/02/06 03:03:33;;;;;;;7.90;2.67;;;7.60;99.90;;;;;;5075934;28;20206;-77
2022/02/06 03:06:03;;;;;;;9.40;2.70;;;7.50;99.90;;;;;;5076184;28;20333;-79
2022/02/06 03:08:31;;;;;;;9.93;2.77;;;7.50;99.90;;;;;;5075830;28;20201;-78
2022/02/06 03:11:02;;;;;;;9.47;2.23;;;7.50;99.90;;;;;;5077633;28;20217;-79
2022/02/06 03:13:37;;;;;;;5.10;2.27;;;7.50;99.90;;;;;;5078814;28;20193;-79
2022/02/06 03:16:16;;;;;;;5.20;1.87;;;7.50;99.90;;;;;;5076297;28;20319;-79
2022/02/06 03:18:48;;;;;;;6.70;2.50;;;7.50;99.90;;;;;;5075714;28;20289;-79
2022/02/06 03:21:19;;;;;;;9.17;2.30;;;7.40;99.90;;;;;;5075577;28;20664;-78
2022/02/06 03:23:50;;;;;;;7.70;2.50;;;7.40;99.90;;;;;;5075312;28;20214;-79
2022/02/06 03:26:20;;;;;;;8.00;2.77;;;7.40;99.90;;;;;;5076158;28;20221;-78
2022/02/06 03:28:48;;;;;;;7.17;2.47;;;7.40;99.90;;;;;;5077068;28;20198;-77
2022/02/06 03:31:16;;;;;;;10.37;2.67;;;7.40;99.90;;;;;;5083834;28;20228;-77
2022/02/06 03:33:46;;;;;;;7.30;2.10;;;7.40;99.90;;;;;;5078172;28;20210;-79
2022/02/06 03:36:13;;;;;;;6.93;2.53;;;7.40;99.90;;;;;;5071947;28;20220;-81
2022/02/06 03:38:40;;;;;;;6.70;2.40;;;7.30;99.90;;;;;;5073561;28;20587;-77
2022/02/06 03:41:10;;;;;;;9.60;2.80;;;7.40;99.90;;;;;;5076189;28;20229;-77
2022/02/06 03:43:48;;;;;;;11.40;2.73;;;7.40;99.90;;;;;;5077312;28;20209;-78
2022/02/06 03:46:20;;;;;;;8.57;2.43;;;7.40;99.90;;;;;;5076916;28;20205;-76
2022/02/06 03:48:51;;;;;;;8.63;3.03;;;7.30;99.90;;;;;;5074099;28;20239;-76
2022/02/06 03:51:21;;;;;;;7.57;3.00;;;7.30;99.90;;;;;;5074699;28;20220;-80
2022/02/06 03:53:51;;;;;;;9.40;2.87;;;7.40;99.90;;;;;;5074436;28;20319;-80
2022/02/06 03:56:19;;;;;;;9.20;3.20;;;7.40;99.90;;;;;;5076245;28;20290;-78
2022/02/06 03:58:49;;;;;;;7.60;2.47;;;7.40;99.90;;;;;;5075785;28;20227;-76
2022/02/06 04:01:16;;;;;;;12.57;3.13;;;7.30;99.90;;;;;;5075781;28;20201;-77
2022/02/06 04:03:46;;;;;;;10.23;2.90;;;7.30;99.90;;;;;;5077320;28;20186;-77
2022/02/06 04:06:13;;;;;;;13.13;3.33;;;7.30;99.90;;;;;;5077158;28;20205;-79
2022/02/06 04:08:43;;;;;;;10.87;2.67;;;7.30;99.90;;;;;;5075862;28;20212;-77
2022/02/06 04:11:14;;;;;;;8.23;2.97;;;7.30;99.90;;;;;;5075190;28;20240;-79
2022/02/06 04:13:53;;;;;;;6.73;2.97;;;7.30;99.90;;;;;;5074031;28;20197;-79
2022/02/06 04:16:27;;;;;;;9.13;2.73;;;7.30;99.90;;;;;;5074751;28;20222;-82
2022/02/06 04:19:05;;;;;;;7.13;2.63;;;7.30;99.90;;;;;;5074541;28;20194;-81
2022/02/06 04:21:33;;;;;;;10.53;2.90;;;7.30;99.90;;;;;;5074942;28;20244;-80
2022/02/06 04:24:00;;;;;;;6.53;2.93;;;7.30;99.90;;;;;;5074869;28;20218;-81
2022/02/06 04:26:27;;;;;;;6.53;3.03;;;7.30;99.90;;;;;;5074569;28;20268;-80
2022/02/06 04:28:54;;;;;;;8.33;3.00;;;7.30;99.90;;;;;;5075095;28;20208;-79
2022/02/06 04:31:22;;;;;;;7.40;3.00;;;7.30;99.90;;;;;;5074936;28;20202;-81
2022/02/06 04:33:51;;;;;;;11.57;3.53;;;7.40;99.90;;;;;;5076368;28;20205;-81
2022/02/06 04:36:19;;;;;;;14.47;3.90;;;7.40;99.90;;;;;;5074095;28;20695;-81
2022/02/06 04:38:57;;;;;;;10.83;2.83;;;7.40;99.90;;;;;;5074668;28;20267;-82
2022/02/06 04:41:49;;;;;;;8.00;2.93;;;7.40;99.90;;;;;;5073513;28;20320;-80
2022/02/06 04:44:44;;;;;;;11.87;4.60;;;7.40;99.90;;;;;;5073486;28;20201;-78
2022/02/06 04:47:58;;;;;;;10.33;3.30;;;7.50;99.90;;;;;;5072878;28;20213;-79
2022/02/06 04:51:11;;;;;;;10.17;2.90;;;7.50;99.90;;;;;;5075326;28;20298;-78
2022/02/06 05:16:15;;;;;;;9.37;3.43;;;7.70;99.90;;;;;;5078262;28;20355;-80
2022/02/06 05:21:50;;;;;;;9.47;3.47;;;7.80;99.90;;;;;;5076153;28;20201;-77
2022/02/06 05:24:46;;;;;;;13.97;4.63;;;7.80;99.90;;;;;;5078968;28;20565;-77
2022/02/06 05:30:02;;;;;;;15.20;3.90;;;7.90;99.90;;;;;;5075221;28;20288;-77
2022/02/06 05:32:36;;;;;;;12.37;3.80;;;7.90;99.90;;;;;;5076064;28;20206;-79
2022/02/06 05:35:04;;;;;;;9.43;3.97;;;8.00;99.90;;;;;;5078478;28;20210;-78
2022/02/06 05:37:34;;;;;;;15.93;4.97;;;8.00;99.90;;;;;;5078278;28;20222;-79
2022/02/06 05:40:01;;;;;;;14.07;3.80;;;8.00;99.90;;;;;;5078435;28;20194;-78
2022/02/06 05:42:28;;;;;;;14.93;3.57;;;8.00;99.90;;;;;;5077475;28;20194;-76
2022/02/06 05:45:03;;;;;;;6.57;2.73;;;8.10;99.90;;;;;;5075510;28;20198;-78
2022/02/06 05:47:33;;;;;;;15.90;3.53;;;8.10;99.90;;;;;;5078258;28;20197;-78
2022/02/06 05:50:00;;;;;;;14.88;4.32;;;8.10;99.90;;;;;;5074522;28;20478;-78
2022/02/06 05:52:27;;;;;;;14.00;3.93;;;8.20;99.90;;;;;;5076313;28;20202;-78
2022/02/06 05:54:58;;;;;;;10.67;3.53;;;8.20;99.90;;;;;;5076105;28;20202;-76
2022/02/06 05:57:25;;;;;;;17.20;2.70;;;8.20;99.90;;;;;;5076455;28;20224;-79
2022/02/06 05:59:53;;;;;;;8.60;2.63;;;8.20;99.90;;;;;;5074424;28;20190;-79
2022/02/06 06:02:20;;;;;;;12.47;3.30;;;8.20;99.90;;;;;;5080240;28;20201;-79
2022/02/06 06:04:47;;;;;;;10.10;2.97;;;8.10;99.90;;;;;;5075732;28;20672;-79
2022/02/06 06:07:15;;;;;;;11.47;3.30;;;8.10;99.90;;;;;;5072546;28;20205;-81
2022/02/06 06:09:42;;;;;;;11.87;3.37;;;8.10;99.90;;;;;;5074488;28;20289;-82
2022/02/06 06:12:11;;;;;;;12.77;3.10;;;8.10;99.90;;;;;;5073204;28;20213;-81
2022/02/06 06:14:40;;;;;;;9.60;4.00;;;8.10;99.90;;;;;;5076864;28;20202;-79
2022/02/06 06:17:07;;;;;;;16.40;3.80;;;8.10;99.90;;;;;;5076310;28;20230;-81
2022/02/06 06:19:36;;;;;;;12.67;4.03;;;8.10;99.90;;;;;;5077086;28;20281;-81
2022/02/06 06:22:07;;;;;;;12.90;4.03;;;8.10;99.90;;;;;;5077468;28;20225;-78
2022/02/06 06:24:39;;;;;;;14.90;3.80;;;8.00;99.90;;;;;;5077779;28;20210;-80
2022/02/06 06:27:06;;;;;;;11.05;4.18;;;8.00;99.90;;;;;;5076471;28;20419;-80
2022/02/06 06:29:35;;;;;;;13.67;3.50;;;8.00;99.90;;;;;;5076514;28;20304;-81
2022/02/06 06:32:02;;;;;;;10.40;3.90;;;8.00;99.90;;;;;;5076855;28;20208;-80
2022/02/06 06:34:29;;;;;;;8.70;3.10;;;8.00;99.90;;;;;;5077619;28;20649;-79
2022/02/06 06:36:56;;;;;;;11.50;3.40;;;7.90;99.90;;;;;;5077600;28;20661;-80
2022/02/06 06:39:34;;;;;;;11.00;3.10;;;7.90;99.90;;;;;;5077415;28;20202;-80
2022/02/06 06:42:01;;;;;;;7.27;3.30;;;7.90;99.90;;;;;;5077249;28;20595;-80
2022/02/06 06:44:32;;;;;;;15.60;3.50;;;7.90;99.90;;;;;;5077943;28;20202;-78
2022/02/06 06:47:01;;;;;;;11.60;3.60;;;7.90;99.90;;;;;;5077033;28;20198;-80
2022/02/06 06:49:29;;;;;;;13.53;3.63;;;7.90;99.90;;;;;;5077410;28;20198;-77
2022/02/06 06:51:57;;;;;;;11.60;4.13;;;7.90;99.90;;;;;;5077653;28;20202;-77
2022/02/06 06:54:24;;;;;;;17.20;4.10;;;7.90;99.90;;;;;;5077047;28;20190;-77
2022/02/06 06:56:57;;;;;;;10.13;4.00;;;7.90;99.90;;;;;;5076573;28;20269;-78
2022/02/06 06:59:32;;;;;;;9.77;4.50;;;8.00;99.90;;;;;;5076436;28;20679;-79
2022/02/06 07:02:16;;;;;;;7.37;3.83;;;8.00;99.90;;;;;;5077617;28;20202;-78
2022/02/06 07:04:46;;;;;;;7.17;4.27;;;8.00;99.90;;;;;;5076813;28;20201;-77
2022/02/06 07:07:14;;;;;;;11.03;3.97;;;8.00;99.90;;;;;;5076628;28;20593;-79
2022/02/06 07:09:43;;;;;;;9.33;3.87;;;8.10;99.90;;;;;;5077133;28;20209;-81
2022/02/06 07:12:13;;;;;;;12.73;3.90;;;8.10;99.90;;;;;;5077516;28;20447;-80
2022/02/06 07:14:43;;;;;;;13.40;3.77;;;8.20;99.90;;;;;;5078868;28;20190;-82
2022/02/06 07:17:10;;;;;;;9.93;3.97;;;8.10;99.90;;;;;;5077169;28;20233;-79
2022/02/06 07:19:37;;;;;;;11.40;4.23;;;8.20;99.90;;;;;;5076213;28;20202;-78
2022/02/06 07:22:07;;;;;;;13.43;3.80;;;8.20;99.90;;;;;;5075962;28;20696;-79
2022/02/06 07:24:35;;;;;;;12.20;3.63;;;8.20;99.90;;;;;;5077227;28;20211;-80
2022/02/06 07:27:15;;;;;;;6.13;2.70;;;8.20;99.90;;;;;;5076794;28;20631;-79
2022/02/06 07:29:43;;;;;;;9.37;3.60;;;8.30;99.90;;;;;;5079980;28;20201;-79
2022/02/06 07:32:12;;;;;;;10.00;3.53;;;8.20;99.90;;;;;;5077835;28;20206;-77
2022/02/06 07:34:39;;;;;;;13.07;3.37;;;8.20;99.90;;;;;;5076519;28;20205;-77
2022/02/06 07:37:07;;;;;;;8.97;2.93;;;8.30;99.90;;;;;;5076321;28;20225;-77
2022/02/06 07:39:42;;;;;;;11.00;3.35;;;8.30;99.90;;;;;;5076570;28;20427;-77
2022/02/06 07:42:12;;;;;;;7.90;2.70;;;8.30;99.90;;;;;;5077822;28;20231;-79
2022/02/06 07:44:39;;;;;;;8.43;2.50;;;8.40;99.90;;;;;;5078859;28;20216;-80
2022/02/06 07:47:14;;;;;;;6.40;2.00;;;8.40;99.90;;;;;;5076872;28;20255;-77
2022/02/06 07:49:44;;;;;;;10.87;2.53;;;8.40;99.90;;;;;;5076653;28;20205;-77
2022/02/06 07:52:13;;;;;;;9.97;2.40;;;8.40;99.90;;;;;;5077757;28;20190;-77
2022/02/06 07:54:39;;;;;;;5.00;2.03;;;8.40;99.90;;;;;;5078338;28;20202;-76
2022/02/06 07:57:08;;;;;;;9.97;2.40;;;8.50;99.90;;;;;;5077070;28;20229;-75
2022/02/06 07:59:35;;;;;;;5.33;1.87;;;8.50;99.90;;;;;;5076060;28;20209;-78
2022/02/06 08:02:03;;;;;;;9.53;3.40;;;8.50;99.90;;;;;;5076047;28;20292;-77
2022/02/06 08:04:29;;;;;;;7.53;2.87;;;8.40;99.90;;;;;;5076046;28;20213;-76
2022/02/06 08:06:58;;;;;;;8.83;3.30;;;8.40;99.90;;;;;;5075968;28;20226;-78
2022/02/06 08:09:42;;;;;;;7.93;3.17;;;8.40;99.90;;;;;;5075362;28;20276;-77
2022/02/06 08:12:12;;;;;;;4.63;2.53;;;8.40;99.90;;;;;;5076229;28;20619;-76
2022/02/06 08:14:54;;;;;;;5.80;4.20;;;8.30;99.90;;;;;;5074934;28;20205;-76
2022/02/06 08:17:23;;;;;;;5.85;3.63;;;8.40;99.90;;;;;;5073751;28;20538;-76
2022/02/06 08:19:50;;;;;;;8.53;3.13;;;8.40;99.90;;;;;;5075250;28;20634;-76
2022/02/06 08:22:17;;;;;;;11.40;3.27;;;8.40;99.90;;;;;;5075383;28;20288;-78
2022/02/06 08:24:46;;;;;;;7.40;2.47;;;8.40;99.90;;;;;;5074941;28;20205;-76
2022/02/06 08:27:13;;;;;;;9.20;3.00;;;8.40;99.90;;;;;;5074948;28;20225;-76
2022/02/06 08:29:43;;;;;;;9.10;3.00;;;8.40;99.90;;;;;;5075198;28;20669;-76
2022/02/06 08:32:10;;;;;;;9.27;3.20;;;8.40;99.90;;;;;;5075198;28;20194;-76
2022/02/06 08:34:37;;;;;;;8.73;2.90;;;8.40;99.90;;;;;;5075160;28;20201;-77
2022/02/06 08:37:05;;;;;;;7.87;2.83;;;8.40;99.90;;;;;;5078093;28;20227;-75
2022/02/06 08:39:34;;;;;;;6.87;2.37;;;8.30;99.90;;;;;;5092074;28;20250;-74
2022/02/06 08:42:04;;;;;;;9.17;3.67;;;8.40;99.90;;;;;;5093707;28;20193;-75
2022/02/06 08:44:31;;;;;;;8.63;2.30;;;8.40;99.90;;;;;;5091015;28;20189;-76
2022/02/06 08:46:58;;;;;;;6.47;2.20;;;8.40;99.90;;;;;;5094098;28;20185;-76
2022/02/06 08:49:25;;;;;;;6.67;2.40;;;8.40;99.90;;;;;;5093354;28;20559;-75
2022/02/06 08:51:52;;;;;;;8.03;2.60;;;8.30;99.90;;;;;;5094726;28;20540;-76
2022/02/06 08:54:21;;;;;;;11.25;3.47;;;8.30;99.90;;;;;;5093606;28;20422;-76
2022/02/06 08:56:47;;;;;;;9.27;2.80;;;8.40;99.90;;;;;;5094874;28;20211;-77
2022/02/06 08:59:16;;;;;;;5.27;2.57;;;8.40;99.90;;;;;;5095202;28;20213;-77
2022/02/06 09:01:43;;;;;;;10.33;2.83;;;8.50;99.90;;;;;;5095122;28;20668;-76
2022/02/06 09:04:10;;;;;;;9.83;3.17;;;8.40;99.90;;;;;;5095333;28;20641;-76
2022/02/06 09:06:37;;;;;;;9.40;2.90;;;8.40;99.90;;;;;;5095397;28;20185;-76
2022/02/06 09:09:04;;;;;;;6.07;2.67;;;8.40;99.90;;;;;;5095903;28;20193;-76
2022/02/06 09:11:32;;;;;;;7.37;3.00;;;8.50;99.90;;;;;;5094965;28;20209;-77
2022/02/06 09:14:00;;;;;;;11.23;2.40;;;8.50;99.90;;;;;;5094747;28;20205;-75
2022/02/06 09:16:28;;;;;;;7.87;2.27;;;8.40;99.90;;;;;;5093449;28;20196;-75
2022/02/06 09:18:55;;;;;;;4.20;2.00;;;8.40;99.90;;;;;;5091144;28;20221;-77
2022/02/06 09:21:23;;;;;;;7.50;2.00;;;8.50;99.90;;;;;;5093104;28;20193;-76
2022/02/06 09:23:52;;;;;;;8.77;2.20;;;8.50;99.90;;;;;;5093899;28;20233;-77
2022/02/06 09:26:21;;;;;;;10.13;2.40;;;8.50;99.90;;;;;;5093220;28;20190;-78
2022/02/06 09:28:48;;;;;;;7.97;2.00;;;8.50;99.90;;;;;;5092722;28;20182;-79
2022/02/06 09:31:15;;;;;;;6.73;2.00;;;8.50;99.90;;;;;;5093812;28;20221;-76
2022/02/06 09:36:10;;;;;;;5.07;1.70;;;8.40;99.90;;;;;;5094605;28;20219;-77
2022/02/06 09:38:37;;;;;;;6.97;2.20;;;8.50;99.90;;;;;;5094325;28;20204;-78
2022/02/06 09:41:04;;;;;;;7.33;3.33;;;8.50;99.90;;;;;;5093957;28;20224;-77
2022/02/06 09:43:33;;;;;;;11.47;5.50;;;8.50;99.90;;;;;;5093252;28;20216;-76
2022/02/06 09:46:02;;;;;;;5.10;2.30;;;8.50;99.90;;;;;;5093697;28;20692;-76
2022/02/06 09:48:31;;;;;;;4.53;1.97;;;8.50;99.90;;;;;;5097257;28;20213;-80
2022/02/06 09:51:02;;;;;;;4.80;1.73;;;8.50;99.90;;;;;;5099180;28;20213;-78
2022/02/06 09:53:32;;;;;;;8.33;2.57;;;8.50;99.90;;;;;;5099706;28;20238;-77
2022/02/06 09:56:07;;;;;;;5.67;1.77;;;8.50;99.90;;;;;;5098937;28;20698;-77
2022/02/06 09:58:57;;;;;;;6.83;2.20;;;8.50;99.90;;;;;;5098924;28;20544;-77
2022/02/06 10:01:27;;;;;;;2.77;1.37;;;8.50;99.90;;;;;;5099651;28;20644;-76
2022/02/06 10:04:03;;;;;;;3.93;2.00;;;8.60;99.90;;;;;;5098487;28;20647;-76
2022/02/06 10:06:36;;;;;;;4.80;1.57;;;8.60;99.90;;;;;;5096833;28;20273;-77
2022/02/06 10:09:04;;;;;;;7.47;2.60;;;8.70;99.90;;;;;;5089402;28;20483;-77
2022/02/06 10:11:35;;;;;;;5.63;1.80;;;8.70;99.90;;;;;;5096843;28;20299;-78
2022/02/06 10:14:02;;;;;;;6.90;2.30;;;8.80;99.90;;;;;;5097637;28;20234;-79
2022/02/06 10:16:29;;;;;;;5.03;2.40;;;8.80;99.90;;;;;;5098011;28;20676;-77
2022/02/06 10:18:56;;;;;;;5.23;1.97;;;8.90;99.90;;;;;;5096767;28;20233;-77
2022/02/06 10:21:34;;;;;;;4.70;2.30;;;8.80;99.90;;;;;;5100079;28;20213;-76
2022/02/06 10:24:07;;;;;;;2.40;2.10;;;8.90;99.90;;;;;;5097122;28;20636;-77
2022/02/06 10:26:40;;;;;;;7.73;2.07;;;8.90;99.90;;;;;;5097209;28;20250;-75
2022/02/06 10:29:25;;;;;;;5.23;1.80;;;9.00;99.90;;;;;;5097474;28;20191;-77
2022/02/06 10:31:55;;;;;;;5.60;2.10;;;8.90;99.90;;;;;;5097276;28;20304;-78
2022/02/06 10:34:24;;;;;;;5.00;1.70;;;9.00;99.90;;;;;;5096954;28;20605;-82
2022/02/06 10:37:09;;;;;;;8.17;1.97;;;9.00;99.90;;;;;;5096475;28;20671;-77
2022/02/06 10:39:38;;;;;;;4.50;1.60;;;9.00;99.90;;;;;;5097477;28;20233;-80
2022/02/06 10:42:21;;;;;;;5.17;1.60;;;9.10;99.90;;;;;;5097292;28;20209;-80
2022/02/06 10:44:49;;;;;;;4.05;1.60;;;9.10;99.90;;;;;;5097176;28;20458;-76
2022/02/06 10:47:30;;;;;;;3.33;1.40;;;9.20;99.90;;;;;;5098558;28;20209;-77
2022/02/06 10:50:04;;;;;;;2.53;1.20;;;9.20;99.90;;;;;;5096400;28;20193;-75
2022/02/06 10:52:33;;;;;;;4.53;1.40;;;9.30;99.90;;;;;;5095139;28;20204;-75
2022/02/06 10:55:01;;;;;;;4.33;1.10;;;9.40;99.90;;;;;;5096360;28;20216;-77
2022/02/06 10:57:29;;;;;;;5.33;1.17;;;9.40;99.90;;;;;;5096159;28;20213;-76
2022/02/06 10:59:58;;;;;;;2.57;1.00;;;9.50;99.90;;;;;;5095252;28;20190;-77
2022/02/06 11:02:27;;;;;;;3.80;1.23;;;9.50;99.90;;;;;;5095985;28;20201;-75
2022/02/06 11:05:02;;;;;;;5.70;1.20;;;9.70;99.90;;;;;;5096299;28;20193;-74
2022/02/06 11:07:29;;;;;;;5.23;1.37;;;9.70;99.90;;;;;;5096556;28;20616;-75
2022/02/06 11:10:11;;;;;;;5.43;1.47;;;9.80;99.90;;;;;;5095071;28;20228;-76
2022/02/06 11:12:41;;;;;;;6.40;1.93;;;9.80;99.90;;;;;;5096533;28;20201;-78
2022/02/06 11:15:24;;;;;;;6.60;1.83;;;9.90;99.90;;;;;;5097154;28;20739;-79
2022/02/06 11:18:04;;;;;;;7.33;1.57;;;10.00;99.90;;;;;;5096712;28;20312;-76
2022/02/06 11:20:32;;;;;;;7.17;1.83;;;10.00;99.90;;;;;;5097701;28;20208;-77
2022/02/06 11:23:03;;;;;;;10.90;2.40;;;10.10;99.90;;;;;;5096169;28;20212;-75
2022/02/06 11:25:32;;;;;;;7.33;2.33;;;10.20;99.90;;;;;;5096258;28;20201;-76
2022/02/06 11:28:00;;;;;;;9.73;1.93;;;10.40;99.90;;;;;;5095950;28;20221;-75
2022/02/06 11:30:27;;;;;;;8.70;2.20;;;10.40;99.90;;;;;;5096101;28;20603;-74
2022/02/06 11:32:56;;;;;;;13.87;2.70;;;10.40;99.90;;;;;;5097282;28;20198;-73
2022/02/06 11:35:28;;;;;;;13.00;2.67;;;10.50;99.90;;;;;;5096863;28;20216;-73
2022/02/06 11:44:22;;;;;;;13.60;2.23;;;10.40;99.90;;;;;;5094969;28;20249;-76
2022/02/06 11:46:54;;;;;;;8.50;2.47;;;10.40;99.90;;;;;;5058813;28;20205;-74
2022/02/06 11:49:22;;;;;;;5.57;1.67;;;10.40;99.90;;;;;;5095781;28;20636;-78
2022/02/06 11:51:56;;;;;;;6.73;1.67;;;10.20;99.90;;;;;;5095873;28;20228;-79
2022/02/06 11:54:29;;;;;;;5.67;1.20;;;10.00;99.90;;;;;;5096356;28;20215;-81
2022/02/06 11:57:25;;;;;;;13.73;1.67;;;9.70;99.90;;;;;;5096603;28;20641;-79
2022/02/06 12:00:14;;;;;;;3.60;0.80;;;9.50;99.90;;;;;;5096027;28;20189;-78
2022/02/06 12:02:45;;;;;;;5.70;1.20;;;9.40;99.90;;;;;;5095640;28;20205;-75
2022/02/06 12:05:19;;;;;;;1.87;0.83;;;9.30;99.90;;;;;;5096535;28;20201;-78
2022/02/06 12:08:13;;;;;;;2.23;0.73;;;9.20;99.90;;;;;;5094405;28;20571;-75
2022/02/06 12:11:14;;;;;;;2.37;0.80;;;9.10;99.90;;;;;;5059884;28;20213;-74
2022/02/06 12:13:42;;;;;;;2.00;0.60;;;9.10;99.90;;;;;;5094134;28;20205;-75
2022/02/06 12:16:26;;;;;;;5.17;0.97;;;9.10;99.90;;;;;;5093318;28;20692;-75
2022/02/06 12:18:54;;;;;;;1.67;0.50;;;9.00;99.90;;;;;;5092938;28;20228;-74
2022/02/06 12:21:23;;;;;;;2.37;0.70;;;8.80;99.90;;;;;;5093012;28;20209;-73
2022/02/06 12:23:54;;;;;;;0.60;0.60;;;8.60;99.90;;;;;;5092554;28;20645;-73
2022/02/06 12:26:45;;;;;;;0.73;0.40;;;8.50;99.90;;;;;;5093278;28;20212;-74
2022/02/06 12:29:22;;;;;;;4.07;0.70;;;8.40;99.90;;;;;;5093297;28;20280;-77
2022/02/06 12:31:58;;;;;;;3.37;0.80;;;8.30;99.90;;;;;;5092731;28;20221;-75
2022/02/06 12:37:28;;;;;;;6.20;1.10;;;8.20;99.90;;;;;;5073426;28;20419;-78
2022/02/06 12:39:57;;;;;;;1.27;0.60;;;8.10;99.90;;;;;;5071264;28;20282;-76
2022/02/06 12:42:29;;;;;;;2.70;0.70;;;8.00;99.90;;;;;;5071791;28;20231;-75
2022/02/06 12:45:00;;;;;;;2.50;0.70;;;8.10;99.90;;;;;;5073957;28;20586;-77
2022/02/06 12:47:29;;;;;;;4.17;0.90;;;8.10;99.90;;;;;;5079191;28;20205;-72
2022/02/06 12:49:57;;;;;;;4.20;0.40;;;8.10;99.90;;;;;;5081608;28;20205;-73
2022/02/06 12:52:24;;;;;;;2.07;0.63;;;8.10;99.90;;;;;;5074701;28;20658;-77
2022/02/06 12:54:51;;;;;;;3.87;0.90;;;8.10;99.90;;;;;;5074432;28;20962;-76
2022/02/06 12:57:20;;;;;;;0.87;0.50;;;8.00;99.90;;;;;;5074153;28;20197;-72
2022/02/06 12:59:50;;;;;;;1.20;0.60;;;8.10;99.90;;;;;;5075787;28;20218;-75
2022/02/06 13:02:29;;;;;;;0.80;0.70;;;8.10;99.90;;;;;;5072524;28;20197;-73
2022/02/06 13:05:00;;;;;;;2.50;0.77;;;8.20;99.90;;;;;;5072519;28;20858;-73
2022/02/06 13:07:30;;;;;;;3.50;0.80;;;8.20;99.90;;;;;;5073893;28;20606;-78
2022/02/06 13:10:03;;;;;;;2.63;0.70;;;8.30;99.90;;;;;;5075258;28;20237;-73
2022/02/06 13:12:36;;;;;;;3.03;0.90;;;8.30;99.90;;;;;;5074352;28;20200;-73
2022/02/06 13:15:29;;;;;;;4.73;1.00;;;8.40;99.90;;;;;;5070910;28;20197;-74
2022/02/06 13:23:58;;;;;;;6.33;1.23;;;8.50;99.90;;;;;;5070732;28;20247;-74
2022/02/06 13:26:32;;;;;;;6.73;1.40;;;8.50;99.90;;;;;;5089981;28;20205;-73
2022/02/06 13:29:07;;;;;;;5.63;1.70;;;8.60;99.90;;;;;;5092531;28;20200;-75
2022/02/06 13:34:38;;;;;;;9.53;2.07;;;8.60;99.90;;;;;;5090382;28;20288;-75
2022/02/06 13:37:11;;;;;;;12.20;2.70;;;8.60;99.90;;;;;;5094286;28;20193;-73
2022/02/06 13:39:48;;;;;;;9.83;2.47;;;8.70;99.90;;;;;;5094354;28;20217;-74
2022/02/06 13:42:19;;;;;;;9.87;2.47;;;8.80;99.90;;;;;;5094231;28;20196;-74
2022/02/06 13:45:01;;;;;;;16.23;3.03;;;8.90;99.90;;;;;;5092852;28;20589;-75
2022/02/06 13:47:28;;;;;;;13.33;3.03;;;9.00;99.90;;;;;;5093810;28;20186;-74
2022/02/06 13:50:00;;;;;;;9.77;2.40;;;9.10;99.90;;;;;;5093113;28;20193;-80
2022/02/06 13:52:29;;;;;;;12.60;3.17;;;9.30;99.90;;;;;;5092939;28;20197;-74
2022/02/06 13:54:56;;;;;;;12.47;2.87;;;9.50;99.90;;;;;;5093303;28;20592;-73
2022/02/06 13:57:25;;;;;;;12.05;3.00;;;9.80;99.90;;;;;;5091732;28;20434;-73
2022/02/06 13:59:52;;;;;;;11.13;2.47;;;10.10;99.90;;;;;;5092511;28;20225;-74
2022/02/06 14:02:19;;;;;;;14.13;2.93;;;10.20;99.90;;;;;;5093859;28;20205;-74
2022/02/06 14:04:49;;;;;;;11.17;1.80;;;10.30;99.90;;;;;;5093663;28;20205;-73
2022/02/06 14:07:21;;;;;;;7.33;2.20;;;10.30;99.90;;;;;;5093850;28;20206;-75
2022/02/06 14:10:04;;;;;;;5.40;1.93;;;10.30;99.90;;;;;;5093471;28;20201;-74
2022/02/06 14:12:48;;;;;;;8.70;2.10;;;10.30;99.90;;;;;;5093881;28;20236;-73
2022/02/06 14:15:21;;;;;;;6.37;1.43;;;10.30;99.90;;;;;;5093207;28;20205;-72
2022/02/06 14:17:49;;;;;;;8.53;2.03;;;10.20;99.90;;;;;;5093429;28;20185;-73
2022/02/06 14:20:23;;;;;;;9.03;2.07;;;10.30;99.90;;;;;;5093305;28;20235;-73
2022/02/06 14:22:53;;;;;;;7.10;2.28;;;10.30;99.90;;;;;;5092547;28;20426;-74
2022/02/06 14:25:28;;;;;;;5.80;1.93;;;10.30;99.90;;;;;;5093098;28;20211;-74
2022/02/06 14:27:55;;;;;;;7.40;2.20;;;10.30;99.90;;;;;;5092948;28;20664;-73
2022/02/06 14:30:25;;;;;;;8.87;2.17;;;10.30;99.90;;;;;;5093643;28;20229;-73
2022/02/06 14:33:03;;;;;;;4.60;2.00;;;10.20;99.90;;;;;;5093643;28;20246;-74
2022/02/06 14:35:45;;;;;;;9.17;3.70;;;10.20;99.90;;;;;;5096390;28;20197;-73
2022/02/06 14:38:22;;;;;;;11.37;2.97;;;10.10;99.90;;;;;;5096319;28;20535;-74
2022/02/06 14:40:53;;;;;;;9.63;2.40;;;10.10;99.90;;;;;;5095980;28;20275;-75
2022/02/06 14:43:37;;;;;;;7.90;2.70;;;10.20;99.90;;;;;;5097645;28;20193;-75
2022/02/06 14:46:05;;;;;;;6.13;2.33;;;10.20;99.90;;;;;;5097972;28;20523;-74
2022/02/06 14:48:32;;;;;;;12.23;3.47;;;10.20;99.90;;;;;;5097011;28;20206;-73